• Join FlightAware (Why Join?)
  • Login
  • US Flag 
09:20AM EDT


 

Airport Tracker/Info


-or-


 

Live Flight TrackerFlight Track Log ✈ EJA831 ✈ 18-Aug-2013 ✈ KMGN - KPWK

Flight Track Log - Related Links

Times and Time Zones

All times are in EDT time to prevent confusion due to time zone crossing. See the EJA831 flight status page for this flight to view local times or setup timezone preferences in your user account.

Time Position Orientation Groundspeed Altitude Reporting Facility
EDT Latitude Longitude Course Direction KTS MPH feet Rate Location/Type
05:02PM 45.4039 -84.9650 208° Southwest 162 186 4,600  Level Minneapolis Center
05:03PM 45.3600 -85.0103 216° Southwest 193 222 8,600 3,600 Climbing Minneapolis Center
05:04PM 45.3053 -85.0528 209° Southwest 206 237 12,100 2,940 Climbing Minneapolis Center
05:05PM 45.2222 -85.1194 209° Southwest 256 295 14,700 2,220 Climbing Minneapolis Center
05:06PM 45.1392 -85.1814 208° Southwest 303 349 16,700 1,800 Climbing Minneapolis Center
05:08PM 44.9654 -85.2927 208° Southwest  Level FlightAware Approximate
05:08PM 45.0525 -85.2508 210° Southwest 333 383 18,500  Level Minneapolis Center
05:09PM 44.9633 -85.3219 209° Southwest 359 413 20,500 1,920 Climbing Minneapolis Center
05:10PM 44.8706 -85.3911 208° Southwest 374 430 22,500 1,740 Climbing Minneapolis Center
05:11PM 44.7806 -85.4611 209° Southwest 370 426 24,500 1,500 Climbing Minneapolis Center
05:12PM 44.6703 -85.5508 210° Southwest 379 436 26,000 720 Climbing Minneapolis Center
05:13PM 44.5806 -85.7047 231° Southwest 420 483 26,000  Level Minneapolis Center
05:14PM 44.5064 -85.8356 232° Southwest 424 488 26,000  Level Minneapolis Center
05:15PM 44.4306 -85.9650 231° Southwest 426 490 26,000  Level Minneapolis Center
05:16PM 44.3317 -86.0592 214° Southwest 427 491 26,000 -300 Level Minneapolis Center
05:17PM 44.2331 -86.1522 214° Southwest 428 493 25,400 -780 Descending Minneapolis Center
05:18PM 44.1333 -86.2439 213° Southwest 427 491 24,400 -840 Descending Minneapolis Center
05:19PM 44.0258 -86.3436 214° Southwest 424 488 23,700 -780 Descending Minneapolis Center
05:20PM 43.9492 -86.4144 214° Southwest 418 481 22,800 -840 Descending Minneapolis Center
05:21PM 43.8361 -86.5183 214° Southwest 410 472 22,000 -420 Descending Minneapolis Center
05:22PM 43.7419 -86.6047 214° Southwest 409 471 22,000  Level Minneapolis Center
05:23PM 43.6183 -86.6839 205° Southwest 412 474 22,000 -180 Level Minneapolis Center
05:24PM 43.5578 -86.7206 204° Southwest 407 468 21,700 -960 Descending Chicago Center
05:25PM 43.4558 -86.7794 203° Southwest 401 461 20,400 -1,500 Descending Chicago Center
05:26PM 43.3361 -86.8481 203° Southwest 392 451 18,600 -1,500 Descending Chicago Center
05:27PM 43.2378 -86.9039 202° Southwest 387 445 17,300 -1,620 Descending Chicago Center
05:28PM 43.1419 -86.9594 203° Southwest 379 436 15,300 -1,620 Descending Chicago Center
05:29PM 43.0500 -87.0106 202° Southwest 362 417 14,000 -660 Descending Chicago Center
05:30PM 42.9597 -87.0633 203° Southwest 356 410 14,000 -960 Level Chicago Center
05:31PM 42.8836 -87.1453 218° Southwest 353 406 12,100 -1,980 Descending Chicago Center
05:32PM 42.8006 -87.2472 222° Southwest 337 388 10,000 -1,020 Descending Chicago Center
05:33PM 42.7328 -87.3311 222° Southwest 331 381 10,000 -60 Level Chicago Center
05:34PM 42.6619 -87.4169 222° Southwest 323 372 9,900 -960 Descending Chicago Center
05:35PM 42.6044 -87.4881 222° Southwest 284 327 8,000 -1,920 Descending Chicago Center
05:36PM 42.5481 -87.5556 221° Southwest 271 312 6,000 -1,920 Descending Chicago Center
05:37PM 42.4947 -87.6219 223° Southwest 262 302 4,100 -1,020 Descending Chicago Center
05:38PM 42.4308 -87.6936 220° Southwest 257 296 4,000 -240 Descending Chicago Center
05:39PM 42.3797 -87.7558 222° Southwest 248 285 3,700 -540 Descending Chicago Center
05:40PM 42.3383 -87.8100 224° Southwest 220 253 3,000 -360 Descending Chicago Center
05:42PM 42.2917 -87.8617 219° Southwest 206 237 3,000 -360 Level Chicago Center
05:43PM 42.2500 -87.9119 222° Southwest 203 234 2,300 -360 Descending Chicago Center
05:44PM 42.2100 -87.9467 213° Southwest 189 217 2,300 -180 Level Chicago Center
05:45PM 42.1714 -87.9353 168° South 160 184 2,000 -300 Descending Chicago Center
05:47PM 42.1143 -87.9015 169° South  Level Estimated
05:54PM 42.1143 -87.9015 169° South  Level Estimated